Trondheim, Norge

18:43:CEST den 25. Oktober 2014 (GMT +0200)
Kvislabakken | Change Station
CLOSE
Current Station
Personlig værstasjon
Location: Stjørdal, NORD-TRøNDELAG
Høyde over havet: 16 ft
Nearby Weather Stations

H.o.h 16 ft 63.48 °N, 10.90 °E | Updated 5 seconds ago

Clear
Klart
54.9 °F
Feels Like 54.9 °F
N
7.4
Vind Variabel Vind from Sør
Gusts 19.0 mph

I dag
High -- | Low -- °F
--% Chance of Precip.
I går
High -- | Low -- °F
Precip. -- tommer
8:33 AM 5:25 PM
Økende sigd, 3% visible
Lufttrykk 29.53 tommer
Sikt -9999.0 eng. mil
Skyet
Duggpunkt 38 °F
Fuktighet 52%
Regn 0.00 tommer
Snødybde Not available.
UV Not available.
Pollen Not available.
Luftkvalitet Not available.
Flu Activity Not available.
METAR ENVA 251620Z 17010KT 140V200 CAVOK 12/02 Q1000 RMK WIND 670FT 18017KT

More Conditions Fewer Conditions

Lufttrykk 29.53 tommer
Sikt -9999.0 eng. mil
Skyet
Duggpunkt 38 °F
Fuktighet 52%
Regn 0.00 tommer
Snødybde Not available.
UV Not available.
Pollen Not available.
Luftkvalitet Not available.
Flu Activity Not available.
METAR ENVA 251620Z 17010KT 140V200 CAVOK 12/02 Q1000 RMK WIND 670FT 18017KT

More Conditions Fewer Conditions

10-Day Weather Forecast

Almanac

Astronomi

Oct. 25, 2014 Oppgang Nedgang
Virkelig tid 08:33 CEST 17:25 CEST
Tussmørke 07:43 CEST 18:15 CEST
Nautisk skumring 06:49 CEST 19:09 CEST
Astronomisk skumring 05:55 CEST 20:03 CEST
Månen 10:20 CEST 18:07 CEST
Lengde av synlig lys 10h 31m
Dagens lengde
8h 52m
Tomorrow will be 6m 16s shorter.
Økende sigd, 3% of the Moon is Illuminated
I dag
Økende sigd
Oct 30
Første kvarter
Nov 6
Fullmåne
Nov 14
Siste kvarter
Nov 22
Ny

Dagens maks og min

Country Highs Country Lows

Community

WunderPhotos

Upload Photos

1,764,901 photos uploaded!

Nearby

Snødybde

Not available.

Earthquake Activity

By Distance Mag. Time & Date
No recent earthquake activity has been reported nearby.
Minimum magnitude displayed is 2.5.

Coastal Water Temperatures

Sted Temperatur
Ingen stasjoner raporterer

Nearby Weather Stations